sensor_id;sensor_type;location;lat;lon;timestamp;temperature;humidity
53748;DHT22;39655;53.210;5.768;2023-07-29T00:00:42;18.50;88.90
53748;DHT22;39655;53.210;5.768;2023-07-29T00:03:09;18.60;88.90
53748;DHT22;39655;53.210;5.768;2023-07-29T00:05:35;18.60;89.00
53748;DHT22;39655;53.210;5.768;2023-07-29T00:08:00;18.50;89.00
53748;DHT22;39655;53.210;5.768;2023-07-29T00:10:27;18.50;89.00
53748;DHT22;39655;53.210;5.768;2023-07-29T00:12:52;18.50;89.10
53748;DHT22;39655;53.210;5.768;2023-07-29T00:15:18;18.50;89.10
53748;DHT22;39655;53.210;5.768;2023-07-29T00:17:44;18.50;89.20
53748;DHT22;39655;53.210;5.768;2023-07-29T00:20:09;18.40;89.30
53748;DHT22;39655;53.210;5.768;2023-07-29T00:22:35;18.40;89.30
53748;DHT22;39655;53.210;5.768;2023-07-29T00:25:01;18.30;89.40
53748;DHT22;39655;53.210;5.768;2023-07-29T00:27:27;18.40;89.40
53748;DHT22;39655;53.210;5.768;2023-07-29T00:29:52;18.30;89.40
53748;DHT22;39655;53.210;5.768;2023-07-29T00:32:18;18.30;89.50
53748;DHT22;39655;53.210;5.768;2023-07-29T00:34:44;18.30;89.60
53748;DHT22;39655;53.210;5.768;2023-07-29T00:37:10;18.30;89.60
53748;DHT22;39655;53.210;5.768;2023-07-29T00:39:36;18.20;89.80
53748;DHT22;39655;53.210;5.768;2023-07-29T00:42:03;18.20;89.90
53748;DHT22;39655;53.210;5.768;2023-07-29T00:44:29;18.20;89.90
53748;DHT22;39655;53.210;5.768;2023-07-29T00:46:57;18.10;89.80
53748;DHT22;39655;53.210;5.768;2023-07-29T00:49:24;18.10;89.80
53748;DHT22;39655;53.210;5.768;2023-07-29T00:51:50;18.10;90.00
53748;DHT22;39655;53.210;5.768;2023-07-29T00:54:16;18.00;89.90
53748;DHT22;39655;53.210;5.768;2023-07-29T00:56:41;18.10;90.20
53748;DHT22;39655;53.210;5.768;2023-07-29T00:59:08;18.10;90.40
53748;DHT22;39655;53.210;5.768;2023-07-29T01:01:33;18.10;90.40
53748;DHT22;39655;53.210;5.768;2023-07-29T01:03:59;18.10;90.40
53748;DHT22;39655;53.210;5.768;2023-07-29T01:16:48;18.10;90.50
53748;DHT22;39655;53.210;5.768;2023-07-29T01:21:54;18.20;90.50
53748;DHT22;39655;53.210;5.768;2023-07-29T01:24:20;18.20;90.50
53748;DHT22;39655;53.210;5.768;2023-07-29T01:26:45;18.20;90.50
53748;DHT22;39655;53.210;5.768;2023-07-29T01:29:11;18.20;90.60
53748;DHT22;39655;53.210;5.768;2023-07-29T01:31:43;18.20;90.50
53748;DHT22;39655;53.210;5.768;2023-07-29T01:37:06;18.30;90.60
53748;DHT22;39655;53.210;5.768;2023-07-29T01:39:35;18.20;90.50
53748;DHT22;39655;53.210;5.768;2023-07-29T01:42:02;18.20;90.60
53748;DHT22;39655;53.210;5.768;2023-07-29T01:44:28;18.30;90.60
53748;DHT22;39655;53.210;5.768;2023-07-29T01:46:56;18.20;90.60
53748;DHT22;39655;53.210;5.768;2023-07-29T01:49:21;18.20;90.70
53748;DHT22;39655;53.210;5.768;2023-07-29T01:51:47;18.20;90.80
53748;DHT22;39655;53.210;5.768;2023-07-29T01:54:13;18.20;90.90
53748;DHT22;39655;53.210;5.768;2023-07-29T01:56:38;18.20;90.90
53748;DHT22;39655;53.210;5.768;2023-07-29T01:59:04;18.10;91.00
53748;DHT22;39655;53.210;5.768;2023-07-29T02:01:30;18.20;91.10
53748;DHT22;39655;53.210;5.768;2023-07-29T02:03:56;18.10;91.10
53748;DHT22;39655;53.210;5.768;2023-07-29T02:06:22;18.10;91.20
53748;DHT22;39655;53.210;5.768;2023-07-29T02:08:48;18.10;91.20
53748;DHT22;39655;53.210;5.768;2023-07-29T02:11:13;18.10;91.30
53748;DHT22;39655;53.210;5.768;2023-07-29T02:13:39;18.10;91.20
53748;DHT22;39655;53.210;5.768;2023-07-29T02:16:05;18.00;91.30
53748;DHT22;39655;53.210;5.768;2023-07-29T02:18:30;18.10;91.50
53748;DHT22;39655;53.210;5.768;2023-07-29T02:20:56;18.00;91.40
53748;DHT22;39655;53.210;5.768;2023-07-29T02:23:21;17.90;91.50
53748;DHT22;39655;53.210;5.768;2023-07-29T02:25:47;18.00;91.70
53748;DHT22;39655;53.210;5.768;2023-07-29T02:28:13;17.90;91.40
53748;DHT22;39655;53.210;5.768;2023-07-29T02:30:41;17.90;91.40
53748;DHT22;39655;53.210;5.768;2023-07-29T02:33:07;18.00;91.70
53748;DHT22;39655;53.210;5.768;2023-07-29T02:35:32;17.90;91.60
53748;DHT22;39655;53.210;5.768;2023-07-29T02:37:58;17.90;91.60
53748;DHT22;39655;53.210;5.768;2023-07-29T02:40:24;17.90;91.60
53748;DHT22;39655;53.210;5.768;2023-07-29T02:42:52;17.90;91.70
53748;DHT22;39655;53.210;5.768;2023-07-29T02:45:17;17.90;91.70
53748;DHT22;39655;53.210;5.768;2023-07-29T02:47:43;17.90;91.60
53748;DHT22;39655;53.210;5.768;2023-07-29T02:50:09;17.90;91.60
53748;DHT22;39655;53.210;5.768;2023-07-29T02:52:34;17.80;91.60
53748;DHT22;39655;53.210;5.768;2023-07-29T02:55:00;17.80;91.60
53748;DHT22;39655;53.210;5.768;2023-07-29T02:57:26;17.70;91.50
53748;DHT22;39655;53.210;5.768;2023-07-29T02:59:51;17.70;91.60
53748;DHT22;39655;53.210;5.768;2023-07-29T03:02:17;17.60;91.60
53748;DHT22;39655;53.210;5.768;2023-07-29T03:04:43;17.60;91.60
53748;DHT22;39655;53.210;5.768;2023-07-29T03:07:08;17.50;91.80
53748;DHT22;39655;53.210;5.768;2023-07-29T03:09:34;17.50;91.70
53748;DHT22;39655;53.210;5.768;2023-07-29T03:12:00;17.40;91.70
53748;DHT22;39655;53.210;5.768;2023-07-29T03:14:26;17.30;91.70
53748;DHT22;39655;53.210;5.768;2023-07-29T03:16:52;17.20;91.80
53748;DHT22;39655;53.210;5.768;2023-07-29T03:19:18;17.20;91.90
53748;DHT22;39655;53.210;5.768;2023-07-29T03:21:44;17.20;91.90
53748;DHT22;39655;53.210;5.768;2023-07-29T03:24:11;17.10;91.90
53748;DHT22;39655;53.210;5.768;2023-07-29T03:26:37;17.10;91.90
53748;DHT22;39655;53.210;5.768;2023-07-29T03:29:02;17.10;92.00
53748;DHT22;39655;53.210;5.768;2023-07-29T03:31:28;17.10;92.00
53748;DHT22;39655;53.210;5.768;2023-07-29T03:33:53;17.00;92.10
53748;DHT22;39655;53.210;5.768;2023-07-29T03:36:21;17.00;92.00
53748;DHT22;39655;53.210;5.768;2023-07-29T03:38:46;16.90;92.10
53748;DHT22;39655;53.210;5.768;2023-07-29T03:41:12;16.90;92.20
53748;DHT22;39655;53.210;5.768;2023-07-29T03:43:38;16.90;92.20
53748;DHT22;39655;53.210;5.768;2023-07-29T03:46:04;16.90;92.20
53748;DHT22;39655;53.210;5.768;2023-07-29T03:48:30;16.90;92.40
53748;DHT22;39655;53.210;5.768;2023-07-29T03:50:56;16.90;92.40
53748;DHT22;39655;53.210;5.768;2023-07-29T03:53:22;16.80;92.40
53748;DHT22;39655;53.210;5.768;2023-07-29T03:55:48;16.90;92.40
53748;DHT22;39655;53.210;5.768;2023-07-29T03:58:15;16.80;92.30
53748;DHT22;39655;53.210;5.768;2023-07-29T04:00:41;16.80;92.30
53748;DHT22;39655;53.210;5.768;2023-07-29T04:03:07;16.80;92.40
53748;DHT22;39655;53.210;5.768;2023-07-29T04:05:33;16.80;92.40
53748;DHT22;39655;53.210;5.768;2023-07-29T04:07:59;16.80;92.40
53748;DHT22;39655;53.210;5.768;2023-07-29T04:10:25;16.80;92.40
53748;DHT22;39655;53.210;5.768;2023-07-29T04:12:50;16.80;92.50
53748;DHT22;39655;53.210;5.768;2023-07-29T04:15:16;16.90;92.40
53748;DHT22;39655;53.210;5.768;2023-07-29T04:17:41;16.90;92.40
53748;DHT22;39655;53.210;5.768;2023-07-29T04:20:07;16.90;92.40
53748;DHT22;39655;53.210;5.768;2023-07-29T04:22:33;16.90;92.40
53748;DHT22;39655;53.210;5.768;2023-07-29T04:24:59;16.90;92.30
53748;DHT22;39655;53.210;5.768;2023-07-29T04:27:25;16.90;92.40
53748;DHT22;39655;53.210;5.768;2023-07-29T04:29:50;16.90;92.40
53748;DHT22;39655;53.210;5.768;2023-07-29T04:32:16;16.90;92.40
53748;DHT22;39655;53.210;5.768;2023-07-29T04:34:41;17.00;92.40
53748;DHT22;39655;53.210;5.768;2023-07-29T04:37:07;17.00;92.40
53748;DHT22;39655;53.210;5.768;2023-07-29T04:39:33;17.00;92.40
53748;DHT22;39655;53.210;5.768;2023-07-29T04:41:58;17.00;92.30
53748;DHT22;39655;53.210;5.768;2023-07-29T04:44:24;17.10;92.30
53748;DHT22;39655;53.210;5.768;2023-07-29T04:46:50;17.10;92.30
53748;DHT22;39655;53.210;5.768;2023-07-29T04:49:15;17.10;92.30
53748;DHT22;39655;53.210;5.768;2023-07-29T04:51:41;17.10;92.30
53748;DHT22;39655;53.210;5.768;2023-07-29T04:54:06;17.10;92.20
53748;DHT22;39655;53.210;5.768;2023-07-29T04:56:32;17.10;92.20
53748;DHT22;39655;53.210;5.768;2023-07-29T04:58:58;17.10;92.20
53748;DHT22;39655;53.210;5.768;2023-07-29T05:01:23;17.20;92.10
53748;DHT22;39655;53.210;5.768;2023-07-29T05:03:50;17.20;92.10
53748;DHT22;39655;53.210;5.768;2023-07-29T05:06:15;17.20;92.10
53748;DHT22;39655;53.210;5.768;2023-07-29T05:08:41;17.20;92.10
53748;DHT22;39655;53.210;5.768;2023-07-29T05:11:07;17.20;92.00
53748;DHT22;39655;53.210;5.768;2023-07-29T05:13:32;17.30;92.00
53748;DHT22;39655;53.210;5.768;2023-07-29T05:15:58;17.30;92.10
53748;DHT22;39655;53.210;5.768;2023-07-29T05:18:23;17.30;92.00
53748;DHT22;39655;53.210;5.768;2023-07-29T05:20:49;17.30;91.90
53748;DHT22;39655;53.210;5.768;2023-07-29T05:23:15;17.40;91.90
53748;DHT22;39655;53.210;5.768;2023-07-29T05:25:40;17.40;91.90
53748;DHT22;39655;53.210;5.768;2023-07-29T05:28:06;17.40;91.90
53748;DHT22;39655;53.210;5.768;2023-07-29T05:30:33;17.40;91.80
53748;DHT22;39655;53.210;5.768;2023-07-29T05:32:59;17.50;91.80
53748;DHT22;39655;53.210;5.768;2023-07-29T05:35:25;17.50;91.80
53748;DHT22;39655;53.210;5.768;2023-07-29T05:37:51;17.50;91.80
53748;DHT22;39655;53.210;5.768;2023-07-29T05:40:16;17.50;91.80
53748;DHT22;39655;53.210;5.768;2023-07-29T05:42:42;17.50;91.80
53748;DHT22;39655;53.210;5.768;2023-07-29T05:45:09;17.60;91.90
53748;DHT22;39655;53.210;5.768;2023-07-29T05:47:35;17.60;91.80
53748;DHT22;39655;53.210;5.768;2023-07-29T05:50:00;17.70;91.90
53748;DHT22;39655;53.210;5.768;2023-07-29T05:52:30;17.80;91.70
53748;DHT22;39655;53.210;5.768;2023-07-29T05:54:56;17.80;91.80
53748;DHT22;39655;53.210;5.768;2023-07-29T05:57:21;17.90;91.90
53748;DHT22;39655;53.210;5.768;2023-07-29T05:59:47;18.00;91.80
53748;DHT22;39655;53.210;5.768;2023-07-29T06:02:13;18.10;91.80
53748;DHT22;39655;53.210;5.768;2023-07-29T06:04:38;18.20;91.70
53748;DHT22;39655;53.210;5.768;2023-07-29T06:07:05;18.20;91.60
53748;DHT22;39655;53.210;5.768;2023-07-29T06:09:30;18.40;91.70
53748;DHT22;39655;53.210;5.768;2023-07-29T06:11:56;18.50;91.70
53748;DHT22;39655;53.210;5.768;2023-07-29T06:14:22;18.60;91.40
53748;DHT22;39655;53.210;5.768;2023-07-29T06:16:47;18.70;91.10
53748;DHT22;39655;53.210;5.768;2023-07-29T06:19:13;18.70;91.00
53748;DHT22;39655;53.210;5.768;2023-07-29T06:21:39;18.80;91.00
53748;DHT22;39655;53.210;5.768;2023-07-29T06:24:04;19.00;90.70
53748;DHT22;39655;53.210;5.768;2023-07-29T06:26:30;19.10;90.60
53748;DHT22;39655;53.210;5.768;2023-07-29T06:28:55;19.30;89.40
53748;DHT22;39655;53.210;5.768;2023-07-29T06:31:21;19.30;89.10
53748;DHT22;39655;53.210;5.768;2023-07-29T06:33:47;19.30;89.10
53748;DHT22;39655;53.210;5.768;2023-07-29T06:36:13;19.30;88.50
53748;DHT22;39655;53.210;5.768;2023-07-29T06:38:39;19.20;88.80
53748;DHT22;39655;53.210;5.768;2023-07-29T06:41:05;19.20;88.60
53748;DHT22;39655;53.210;5.768;2023-07-29T06:43:31;19.10;88.90
53748;DHT22;39655;53.210;5.768;2023-07-29T06:45:56;19.10;88.70
53748;DHT22;39655;53.210;5.768;2023-07-29T06:48:22;19.10;88.90
53748;DHT22;39655;53.210;5.768;2023-07-29T06:50:49;19.10;88.30
53748;DHT22;39655;53.210;5.768;2023-07-29T06:53:15;19.10;88.50
53748;DHT22;39655;53.210;5.768;2023-07-29T06:55:42;19.10;88.50
53748;DHT22;39655;53.210;5.768;2023-07-29T06:58:08;19.10;88.50
53748;DHT22;39655;53.210;5.768;2023-07-29T07:00:33;19.10;88.40
53748;DHT22;39655;53.210;5.768;2023-07-29T07:02:59;19.10;88.40
53748;DHT22;39655;53.210;5.768;2023-07-29T07:05:24;19.10;88.30
53748;DHT22;39655;53.210;5.768;2023-07-29T07:07:50;18.90;88.60
53748;DHT22;39655;53.210;5.768;2023-07-29T07:10:16;19.10;88.90
53748;DHT22;39655;53.210;5.768;2023-07-29T07:12:41;19.10;88.20
53748;DHT22;39655;53.210;5.768;2023-07-29T07:15:07;19.20;88.50
53748;DHT22;39655;53.210;5.768;2023-07-29T07:17:33;19.30;88.40
53748;DHT22;39655;53.210;5.768;2023-07-29T07:19:59;19.50;88.40
53748;DHT22;39655;53.210;5.768;2023-07-29T07:22:24;19.70;88.30
53748;DHT22;39655;53.210;5.768;2023-07-29T07:24:50;19.80;87.90
53748;DHT22;39655;53.210;5.768;2023-07-29T07:27:16;20.00;86.50
53748;DHT22;39655;53.210;5.768;2023-07-29T07:29:41;19.90;86.50
53748;DHT22;39655;53.210;5.768;2023-07-29T07:32:07;19.90;86.70
53748;DHT22;39655;53.210;5.768;2023-07-29T07:34:33;19.90;85.90
53748;DHT22;39655;53.210;5.768;2023-07-29T07:37:00;19.80;86.00
53748;DHT22;39655;53.210;5.768;2023-07-29T07:39:26;19.80;86.40
53748;DHT22;39655;53.210;5.768;2023-07-29T07:41:51;19.90;86.20
53748;DHT22;39655;53.210;5.768;2023-07-29T07:44:18;20.00;85.90
53748;DHT22;39655;53.210;5.768;2023-07-29T07:46:45;20.10;86.00
53748;DHT22;39655;53.210;5.768;2023-07-29T07:49:11;20.10;84.90
53748;DHT22;39655;53.210;5.768;2023-07-29T07:51:38;19.90;85.40
53748;DHT22;39655;53.210;5.768;2023-07-29T07:54:03;20.00;85.50
53748;DHT22;39655;53.210;5.768;2023-07-29T07:56:29;20.00;85.10
53748;DHT22;39655;53.210;5.768;2023-07-29T07:58:55;20.00;84.80
53748;DHT22;39655;53.210;5.768;2023-07-29T08:01:20;20.00;85.20
53748;DHT22;39655;53.210;5.768;2023-07-29T08:03:46;20.00;85.20
53748;DHT22;39655;53.210;5.768;2023-07-29T08:06:12;20.10;85.50
53748;DHT22;39655;53.210;5.768;2023-07-29T08:08:37;20.30;84.70
53748;DHT22;39655;53.210;5.768;2023-07-29T08:11:03;20.30;84.40
53748;DHT22;39655;53.210;5.768;2023-07-29T08:13:29;20.30;83.40
53748;DHT22;39655;53.210;5.768;2023-07-29T08:15:54;20.30;82.50
53748;DHT22;39655;53.210;5.768;2023-07-29T08:18:20;20.20;83.30
53748;DHT22;39655;53.210;5.768;2023-07-29T08:20:57;20.20;83.10
53748;DHT22;39655;53.210;5.768;2023-07-29T08:23:24;20.10;82.90
53748;DHT22;39655;53.210;5.768;2023-07-29T08:25:58;20.10;82.90
53748;DHT22;39655;53.210;5.768;2023-07-29T08:28:35;20.20;82.40
53748;DHT22;39655;53.210;5.768;2023-07-29T08:31:01;20.30;81.60
53748;DHT22;39655;53.210;5.768;2023-07-29T08:33:27;20.40;81.20
53748;DHT22;39655;53.210;5.768;2023-07-29T08:35:53;20.40;80.80
53748;DHT22;39655;53.210;5.768;2023-07-29T08:38:19;20.50;81.00
53748;DHT22;39655;53.210;5.768;2023-07-29T08:43:32;20.70;80.10
53748;DHT22;39655;53.210;5.768;2023-07-29T08:45:59;20.70;79.60
53748;DHT22;39655;53.210;5.768;2023-07-29T08:48:35;20.70;80.00
53748;DHT22;39655;53.210;5.768;2023-07-29T08:51:03;20.60;80.30
53748;DHT22;39655;53.210;5.768;2023-07-29T08:53:31;20.70;79.50
53748;DHT22;39655;53.210;5.768;2023-07-29T08:55:57;20.80;79.00
53748;DHT22;39655;53.210;5.768;2023-07-29T08:58:23;20.70;79.30
53748;DHT22;39655;53.210;5.768;2023-07-29T09:00:50;20.60;80.20
53748;DHT22;39655;53.210;5.768;2023-07-29T09:03:16;20.60;80.10
53748;DHT22;39655;53.210;5.768;2023-07-29T09:05:41;20.80;78.90
53748;DHT22;39655;53.210;5.768;2023-07-29T09:08:07;20.80;78.60
53748;DHT22;39655;53.210;5.768;2023-07-29T09:10:37;20.90;78.60
53748;DHT22;39655;53.210;5.768;2023-07-29T09:13:03;20.90;79.10
53748;DHT22;39655;53.210;5.768;2023-07-29T09:15:30;21.00;78.40
53748;DHT22;39655;53.210;5.768;2023-07-29T09:17:57;21.00;78.40
53748;DHT22;39655;53.210;5.768;2023-07-29T09:20:27;21.00;77.90
53748;DHT22;39655;53.210;5.768;2023-07-29T09:22:58;21.00;77.80
53748;DHT22;39655;53.210;5.768;2023-07-29T09:25:27;21.00;78.30
53748;DHT22;39655;53.210;5.768;2023-07-29T09:27:58;20.80;79.30
53748;DHT22;39655;53.210;5.768;2023-07-29T09:30:24;20.90;79.10
53748;DHT22;39655;53.210;5.768;2023-07-29T09:32:57;21.10;79.20
53748;DHT22;39655;53.210;5.768;2023-07-29T09:35:24;21.30;78.80
53748;DHT22;39655;53.210;5.768;2023-07-29T09:37:51;21.40;78.40
53748;DHT22;39655;53.210;5.768;2023-07-29T09:40:17;21.40;77.50
53748;DHT22;39655;53.210;5.768;2023-07-29T09:42:50;21.20;78.50
53748;DHT22;39655;53.210;5.768;2023-07-29T09:45:23;21.30;79.20
53748;DHT22;39655;53.210;5.768;2023-07-29T09:47:51;21.30;79.10
53748;DHT22;39655;53.210;5.768;2023-07-29T09:50:17;21.30;79.10
53748;DHT22;39655;53.210;5.768;2023-07-29T09:52:43;21.40;78.90
53748;DHT22;39655;53.210;5.768;2023-07-29T09:55:19;21.60;78.10
53748;DHT22;39655;53.210;5.768;2023-07-29T09:57:46;21.60;77.90
53748;DHT22;39655;53.210;5.768;2023-07-29T10:00:12;21.60;78.30
53748;DHT22;39655;53.210;5.768;2023-07-29T10:02:42;21.70;78.00
53748;DHT22;39655;53.210;5.768;2023-07-29T10:05:09;21.70;77.80
53748;DHT22;39655;53.210;5.768;2023-07-29T10:07:37;21.70;77.90
53748;DHT22;39655;53.210;5.768;2023-07-29T10:10:07;21.60;77.70
53748;DHT22;39655;53.210;5.768;2023-07-29T10:12:34;21.40;78.70
53748;DHT22;39655;53.210;5.768;2023-07-29T10:15:05;21.40;78.40
53748;DHT22;39655;53.210;5.768;2023-07-29T10:17:36;21.40;77.80
53748;DHT22;39655;53.210;5.768;2023-07-29T10:20:07;21.40;77.80
53748;DHT22;39655;53.210;5.768;2023-07-29T10:22:43;21.60;76.60
53748;DHT22;39655;53.210;5.768;2023-07-29T10:25:22;21.60;76.40
53748;DHT22;39655;53.210;5.768;2023-07-29T10:27:49;21.70;75.90
53748;DHT22;39655;53.210;5.768;2023-07-29T10:30:15;21.70;76.30
53748;DHT22;39655;53.210;5.768;2023-07-29T10:32:44;21.80;75.10
53748;DHT22;39655;53.210;5.768;2023-07-29T10:35:13;21.90;74.80
53748;DHT22;39655;53.210;5.768;2023-07-29T10:37:39;22.20;74.30
53748;DHT22;39655;53.210;5.768;2023-07-29T10:40:08;22.40;73.60
53748;DHT22;39655;53.210;5.768;2023-07-29T10:42:33;22.50;72.40
53748;DHT22;39655;53.210;5.768;2023-07-29T10:45:00;22.40;73.70
53748;DHT22;39655;53.210;5.768;2023-07-29T10:47:28;22.30;74.20
53748;DHT22;39655;53.210;5.768;2023-07-29T10:49:58;22.10;73.80
53748;DHT22;39655;53.210;5.768;2023-07-29T10:55:03;21.90;75.30
53748;DHT22;39655;53.210;5.768;2023-07-29T10:57:33;21.70;75.90
53748;DHT22;39655;53.210;5.768;2023-07-29T11:00:00;21.40;78.10
53748;DHT22;39655;53.210;5.768;2023-07-29T11:02:32;21.00;79.30
53748;DHT22;39655;53.210;5.768;2023-07-29T11:04:59;20.60;78.70
53748;DHT22;39655;53.210;5.768;2023-07-29T11:07:28;20.40;79.20
53748;DHT22;39655;53.210;5.768;2023-07-29T11:10:03;20.20;80.50
53748;DHT22;39655;53.210;5.768;2023-07-29T11:17:39;20.20;80.40
53748;DHT22;39655;53.210;5.768;2023-07-29T11:20:05;20.30;79.60
53748;DHT22;39655;53.210;5.768;2023-07-29T11:22:32;20.60;79.10
53748;DHT22;39655;53.210;5.768;2023-07-29T11:24:58;20.60;79.10
53748;DHT22;39655;53.210;5.768;2023-07-29T11:27:24;21.00;78.70
53748;DHT22;39655;53.210;5.768;2023-07-29T11:29:50;21.10;77.00
53748;DHT22;39655;53.210;5.768;2023-07-29T11:32:16;21.20;74.20
53748;DHT22;39655;53.210;5.768;2023-07-29T11:34:42;21.10;74.20
53748;DHT22;39655;53.210;5.768;2023-07-29T11:37:11;21.30;73.60
53748;DHT22;39655;53.210;5.768;2023-07-29T11:39:40;21.40;71.90
53748;DHT22;39655;53.210;5.768;2023-07-29T11:42:07;21.70;72.10
53748;DHT22;39655;53.210;5.768;2023-07-29T11:44:32;22.00;70.50
53748;DHT22;39655;53.210;5.768;2023-07-29T11:46:58;22.10;70.60
53748;DHT22;39655;53.210;5.768;2023-07-29T11:49:24;22.00;70.00
53748;DHT22;39655;53.210;5.768;2023-07-29T11:51:49;22.10;70.10
53748;DHT22;39655;53.210;5.768;2023-07-29T11:54:15;22.10;70.00
53748;DHT22;39655;53.210;5.768;2023-07-29T11:56:41;21.60;71.00
53748;DHT22;39655;53.210;5.768;2023-07-29T11:59:07;21.40;71.50
53748;DHT22;39655;53.210;5.768;2023-07-29T12:01:33;21.40;71.50
53748;DHT22;39655;53.210;5.768;2023-07-29T12:03:59;21.40;72.30
53748;DHT22;39655;53.210;5.768;2023-07-29T12:06:25;21.60;70.40
53748;DHT22;39655;53.210;5.768;2023-07-29T12:08:51;21.50;70.70
53748;DHT22;39655;53.210;5.768;2023-07-29T12:11:17;21.30;71.80
53748;DHT22;39655;53.210;5.768;2023-07-29T12:13:43;21.30;71.40
53748;DHT22;39655;53.210;5.768;2023-07-29T12:16:08;21.20;70.60
53748;DHT22;39655;53.210;5.768;2023-07-29T12:18:36;21.10;72.20
53748;DHT22;39655;53.210;5.768;2023-07-29T12:21:02;21.10;72.30
53748;DHT22;39655;53.210;5.768;2023-07-29T12:23:29;21.10;71.40
53748;DHT22;39655;53.210;5.768;2023-07-29T12:25:59;21.40;70.10
53748;DHT22;39655;53.210;5.768;2023-07-29T12:28:25;21.40;69.70
53748;DHT22;39655;53.210;5.768;2023-07-29T12:30:54;21.50;69.80
53748;DHT22;39655;53.210;5.768;2023-07-29T12:33:32;21.60;70.80
53748;DHT22;39655;53.210;5.768;2023-07-29T12:35:58;21.80;69.90
53748;DHT22;39655;53.210;5.768;2023-07-29T12:38:26;21.90;70.30
53748;DHT22;39655;53.210;5.768;2023-07-29T12:40:51;22.00;70.10
53748;DHT22;39655;53.210;5.768;2023-07-29T12:43:17;22.10;68.40
53748;DHT22;39655;53.210;5.768;2023-07-29T12:45:43;22.10;67.80
53748;DHT22;39655;53.210;5.768;2023-07-29T12:48:09;22.10;68.40
53748;DHT22;39655;53.210;5.768;2023-07-29T12:50:36;22.00;68.50
53748;DHT22;39655;53.210;5.768;2023-07-29T12:53:02;22.30;68.60
53748;DHT22;39655;53.210;5.768;2023-07-29T12:55:27;22.40;68.20
53748;DHT22;39655;53.210;5.768;2023-07-29T12:57:53;22.30;68.90
53748;DHT22;39655;53.210;5.768;2023-07-29T13:00:19;22.20;69.20
53748;DHT22;39655;53.210;5.768;2023-07-29T13:02:44;22.50;67.40
53748;DHT22;39655;53.210;5.768;2023-07-29T13:05:11;22.30;67.40
53748;DHT22;39655;53.210;5.768;2023-07-29T13:07:41;22.20;68.50
53748;DHT22;39655;53.210;5.768;2023-07-29T13:10:08;22.20;67.70
53748;DHT22;39655;53.210;5.768;2023-07-29T13:12:34;22.30;67.60
53748;DHT22;39655;53.210;5.768;2023-07-29T13:15:00;22.70;65.60
53748;DHT22;39655;53.210;5.768;2023-07-29T13:17:26;22.50;66.40
53748;DHT22;39655;53.210;5.768;2023-07-29T13:19:51;22.60;67.40
53748;DHT22;39655;53.210;5.768;2023-07-29T13:22:19;23.20;64.20
53748;DHT22;39655;53.210;5.768;2023-07-29T13:24:45;23.10;65.10
53748;DHT22;39655;53.210;5.768;2023-07-29T13:27:10;23.30;63.60
53748;DHT22;39655;53.210;5.768;2023-07-29T13:29:36;23.60;62.80
53748;DHT22;39655;53.210;5.768;2023-07-29T13:32:02;24.10;61.80
53748;DHT22;39655;53.210;5.768;2023-07-29T13:34:27;24.40;59.30
53748;DHT22;39655;53.210;5.768;2023-07-29T13:36:53;24.00;60.00
53748;DHT22;39655;53.210;5.768;2023-07-29T13:39:19;23.60;61.00
53748;DHT22;39655;53.210;5.768;2023-07-29T13:41:44;23.40;61.10
53748;DHT22;39655;53.210;5.768;2023-07-29T13:44:10;23.50;60.80
53748;DHT22;39655;53.210;5.768;2023-07-29T13:46:36;23.60;61.20
53748;DHT22;39655;53.210;5.768;2023-07-29T13:49:01;23.70;60.40
53748;DHT22;39655;53.210;5.768;2023-07-29T13:51:28;24.10;59.70
53748;DHT22;39655;53.210;5.768;2023-07-29T13:53:54;24.40;57.10
53748;DHT22;39655;53.210;5.768;2023-07-29T13:56:19;24.40;56.10
53748;DHT22;39655;53.210;5.768;2023-07-29T13:58:45;24.40;57.40
53748;DHT22;39655;53.210;5.768;2023-07-29T14:01:10;24.80;56.20
53748;DHT22;39655;53.210;5.768;2023-07-29T14:03:36;24.80;55.20
53748;DHT22;39655;53.210;5.768;2023-07-29T14:06:02;24.60;56.40
53748;DHT22;39655;53.210;5.768;2023-07-29T14:08:27;24.80;56.40
53748;DHT22;39655;53.210;5.768;2023-07-29T14:10:53;24.80;56.00
53748;DHT22;39655;53.210;5.768;2023-07-29T14:13:18;24.80;56.90
53748;DHT22;39655;53.210;5.768;2023-07-29T14:15:44;24.60;57.60
53748;DHT22;39655;53.210;5.768;2023-07-29T14:18:10;24.30;58.80
53748;DHT22;39655;53.210;5.768;2023-07-29T14:20:35;24.20;59.80
53748;DHT22;39655;53.210;5.768;2023-07-29T14:23:01;24.30;60.70
53748;DHT22;39655;53.210;5.768;2023-07-29T14:25:27;24.70;59.10
53748;DHT22;39655;53.210;5.768;2023-07-29T14:27:53;24.90;58.60
53748;DHT22;39655;53.210;5.768;2023-07-29T14:30:18;24.60;59.50
53748;DHT22;39655;53.210;5.768;2023-07-29T14:32:44;24.70;58.50
53748;DHT22;39655;53.210;5.768;2023-07-29T14:35:10;24.80;56.60
53748;DHT22;39655;53.210;5.768;2023-07-29T14:37:35;25.30;54.70
53748;DHT22;39655;53.210;5.768;2023-07-29T14:40:01;25.50;55.80
53748;DHT22;39655;53.210;5.768;2023-07-29T14:42:28;25.80;55.20
53748;DHT22;39655;53.210;5.768;2023-07-29T14:44:55;25.80;54.60
53748;DHT22;39655;53.210;5.768;2023-07-29T14:47:20;25.80;54.10
53748;DHT22;39655;53.210;5.768;2023-07-29T14:49:46;25.70;53.10
53748;DHT22;39655;53.210;5.768;2023-07-29T14:52:12;25.40;53.80
53748;DHT22;39655;53.210;5.768;2023-07-29T14:54:38;25.50;54.60
53748;DHT22;39655;53.210;5.768;2023-07-29T14:57:06;25.60;53.80
53748;DHT22;39655;53.210;5.768;2023-07-29T14:59:32;25.40;54.70
53748;DHT22;39655;53.210;5.768;2023-07-29T15:01:58;25.50;56.00
53748;DHT22;39655;53.210;5.768;2023-07-29T15:04:24;25.60;55.70
53748;DHT22;39655;53.210;5.768;2023-07-29T15:06:50;26.10;54.20
53748;DHT22;39655;53.210;5.768;2023-07-29T15:09:15;26.50;52.50
53748;DHT22;39655;53.210;5.768;2023-07-29T15:11:41;26.40;52.40
53748;DHT22;39655;53.210;5.768;2023-07-29T15:14:07;26.00;53.50
53748;DHT22;39655;53.210;5.768;2023-07-29T15:16:32;26.00;53.50
53748;DHT22;39655;53.210;5.768;2023-07-29T15:19:02;26.20;53.30
53748;DHT22;39655;53.210;5.768;2023-07-29T15:21:27;26.10;52.40
53748;DHT22;39655;53.210;5.768;2023-07-29T15:23:53;25.90;53.70
53748;DHT22;39655;53.210;5.768;2023-07-29T15:26:19;26.00;52.70
53748;DHT22;39655;53.210;5.768;2023-07-29T15:28:44;25.30;55.30
53748;DHT22;39655;53.210;5.768;2023-07-29T15:31:12;24.90;56.00
53748;DHT22;39655;53.210;5.768;2023-07-29T15:33:38;25.10;55.40
53748;DHT22;39655;53.210;5.768;2023-07-29T15:36:04;25.50;55.00
53748;DHT22;39655;53.210;5.768;2023-07-29T15:38:30;25.60;55.10
53748;DHT22;39655;53.210;5.768;2023-07-29T15:40:55;26.10;54.50
53748;DHT22;39655;53.210;5.768;2023-07-29T15:43:22;26.40;52.70
53748;DHT22;39655;53.210;5.768;2023-07-29T15:45:48;26.10;53.50
53748;DHT22;39655;53.210;5.768;2023-07-29T15:48:13;25.90;54.10
53748;DHT22;39655;53.210;5.768;2023-07-29T15:50:39;25.80;55.00